Terminal Aerodrome Forecast
Issued by NWS

Home | Current Version | Previous Version | Text Only | Print | Product List | Glossary On
Versions: 1 2 3 4 5 6 7 8 9 10 11 12 13 14
000
FTUS43 KGLD 230500 RRA
TAFMCK
TAF
KMCK 230547Z 2306/2406 16021G36KT P6SM SCT120 OVC200
     FM231100 16015G25KT P6SM SCT150 BKN200
     FM231400 19020G30KT P6SM BKN150
     FM231700 22022G30KT P6SM BKN120
     FM232100 26015G25KT P6SM VCTS BKN090CB
     FM232200 32025G35KT P6SM VCTS OVC090CB=

USA.gov is the U.S. government's official web portal to all federal, state and local government web resources and services.